sensor_id;sensor_type;location;lat;lon;timestamp;pressure;altitude;pressure_sealevel;temperature;humidity
7966;BME280;4028;43.272;26.932;2023-04-21T00:02:25;98668.50;;;11.07;100.00
7966;BME280;4028;43.272;26.932;2023-04-21T00:04:52;98670.25;;;10.98;100.00
7966;BME280;4028;43.272;26.932;2023-04-21T00:07:18;98662.97;;;11.00;100.00
7966;BME280;4028;43.272;26.932;2023-04-21T00:09:44;98635.19;;;10.96;100.00
7966;BME280;4028;43.272;26.932;2023-04-21T00:12:10;98645.00;;;11.12;100.00
7966;BME280;4028;43.272;26.932;2023-04-21T00:14:35;98646.13;;;11.01;100.00
7966;BME280;4028;43.272;26.932;2023-04-21T00:17:01;98621.38;;;10.84;100.00
7966;BME280;4028;43.272;26.932;2023-04-21T00:19:27;98620.19;;;10.79;100.00
7966;BME280;4028;43.272;26.932;2023-04-21T00:21:54;98641.78;;;10.92;100.00
7966;BME280;4028;43.272;26.932;2023-04-21T00:24:23;98665.50;;;11.02;100.00
7966;BME280;4028;43.272;26.932;2023-04-21T00:26:50;98662.75;;;10.85;100.00
7966;BME280;4028;43.272;26.932;2023-04-21T00:29:15;98673.38;;;10.93;100.00
7966;BME280;4028;43.272;26.932;2023-04-21T00:31:40;98666.44;;;10.92;100.00
7966;BME280;4028;43.272;26.932;2023-04-21T00:34:06;98660.41;;;10.82;100.00
7966;BME280;4028;43.272;26.932;2023-04-21T00:36:31;98665.53;;;10.84;100.00
7966;BME280;4028;43.272;26.932;2023-04-21T00:38:57;98663.69;;;10.76;100.00
7966;BME280;4028;43.272;26.932;2023-04-21T00:41:22;98659.44;;;10.83;100.00
7966;BME280;4028;43.272;26.932;2023-04-21T00:44:05;98662.44;;;10.88;100.00
7966;BME280;4028;43.272;26.932;2023-04-21T00:46:31;98661.41;;;10.81;100.00
7966;BME280;4028;43.272;26.932;2023-04-21T00:48:57;98653.47;;;10.81;100.00
7966;BME280;4028;43.272;26.932;2023-04-21T00:51:23;98657.41;;;10.77;100.00
7966;BME280;4028;43.272;26.932;2023-04-21T00:53:50;98660.41;;;10.82;100.00
7966;BME280;4028;43.272;26.932;2023-04-21T00:56:16;98652.78;;;10.79;100.00
7966;BME280;4028;43.272;26.932;2023-04-21T00:58:44;98645.00;;;10.78;100.00
7966;BME280;4028;43.272;26.932;2023-04-21T01:01:10;98634.47;;;10.86;100.00
7966;BME280;4028;43.272;26.932;2023-04-21T01:03:37;98642.50;;;11.02;100.00
7966;BME280;4028;43.272;26.932;2023-04-21T01:06:03;98635.31;;;10.86;100.00
7966;BME280;4028;43.272;26.932;2023-04-21T01:08:28;98626.53;;;10.86;100.00
7966;BME280;4028;43.272;26.932;2023-04-21T01:10:54;98626.94;;;10.73;100.00
7966;BME280;4028;43.272;26.932;2023-04-21T01:13:19;98618.81;;;10.66;100.00
7966;BME280;4028;43.272;26.932;2023-04-21T01:15:48;98623.59;;;10.63;100.00
7966;BME280;4028;43.272;26.932;2023-04-21T01:18:14;98628.41;;;10.67;100.00
7966;BME280;4028;43.272;26.932;2023-04-21T01:20:41;98620.31;;;10.69;100.00
7966;BME280;4028;43.272;26.932;2023-04-21T01:23:09;98623.31;;;10.74;100.00
7966;BME280;4028;43.272;26.932;2023-04-21T01:25:34;98619.66;;;10.67;100.00
7966;BME280;4028;43.272;26.932;2023-04-21T01:28:00;98611.88;;;10.65;100.00
7966;BME280;4028;43.272;26.932;2023-04-21T01:30:25;98615.38;;;10.74;100.00
7966;BME280;4028;43.272;26.932;2023-04-21T01:32:51;98606.13;;;10.70;100.00
7966;BME280;4028;43.272;26.932;2023-04-21T01:35:16;98610.56;;;10.70;100.00
7966;BME280;4028;43.272;26.932;2023-04-21T01:37:42;98616.00;;;10.68;100.00
7966;BME280;4028;43.272;26.932;2023-04-21T01:40:08;98616.84;;;10.68;100.00
7966;BME280;4028;43.272;26.932;2023-04-21T01:42:36;98616.66;;;10.62;100.00
7966;BME280;4028;43.272;26.932;2023-04-21T01:45:03;98616.00;;;10.68;100.00
7966;BME280;4028;43.272;26.932;2023-04-21T01:47:29;98607.25;;;10.67;100.00
7966;BME280;4028;43.272;26.932;2023-04-21T01:49:54;98605.59;;;10.66;100.00
7966;BME280;4028;43.272;26.932;2023-04-21T01:52:20;98608.88;;;10.60;100.00
7966;BME280;4028;43.272;26.932;2023-04-21T01:54:45;98606.38;;;10.59;100.00
7966;BME280;4028;43.272;26.932;2023-04-21T01:57:11;98612.00;;;10.56;100.00
7966;BME280;4028;43.272;26.932;2023-04-21T01:59:36;98605.75;;;10.65;100.00
7966;BME280;4028;43.272;26.932;2023-04-21T02:02:02;98600.59;;;10.63;100.00
7966;BME280;4028;43.272;26.932;2023-04-21T02:04:28;98597.13;;;10.63;100.00
7966;BME280;4028;43.272;26.932;2023-04-21T02:06:53;98593.50;;;10.64;100.00
7966;BME280;4028;43.272;26.932;2023-04-21T02:09:19;98593.72;;;10.79;100.00
7966;BME280;4028;43.272;26.932;2023-04-21T02:11:44;98580.31;;;10.72;100.00
7966;BME280;4028;43.272;26.932;2023-04-21T02:14:10;98597.50;;;10.68;100.00
7966;BME280;4028;43.272;26.932;2023-04-21T02:16:35;98589.88;;;10.65;100.00
7966;BME280;4028;43.272;26.932;2023-04-21T02:19:01;98582.19;;;10.54;100.00
7966;BME280;4028;43.272;26.932;2023-04-21T02:21:27;98582.25;;;10.62;100.00
7966;BME280;4028;43.272;26.932;2023-04-21T02:23:53;98583.72;;;10.56;100.00
7966;BME280;4028;43.272;26.932;2023-04-21T02:26:18;98589.38;;;10.61;100.00
7966;BME280;4028;43.272;26.932;2023-04-21T02:28:44;98588.84;;;10.58;100.00
7966;BME280;4028;43.272;26.932;2023-04-21T02:31:10;98584.53;;;10.57;100.00
7966;BME280;4028;43.272;26.932;2023-04-21T02:33:36;98584.38;;;10.58;100.00
7966;BME280;4028;43.272;26.932;2023-04-21T02:36:02;98567.28;;;10.45;100.00
7966;BME280;4028;43.272;26.932;2023-04-21T02:38:28;98580.53;;;10.53;100.00
7966;BME280;4028;43.272;26.932;2023-04-21T02:40:55;98585.09;;;10.68;100.00
7966;BME280;4028;43.272;26.932;2023-04-21T02:43:20;98572.41;;;10.46;100.00
7966;BME280;4028;43.272;26.932;2023-04-21T02:45:46;98579.19;;;10.49;100.00
7966;BME280;4028;43.272;26.932;2023-04-21T02:48:11;98573.44;;;10.53;100.00
7966;BME280;4028;43.272;26.932;2023-04-21T02:50:37;98576.72;;;10.47;100.00
7966;BME280;4028;43.272;26.932;2023-04-21T02:53:04;98577.44;;;10.57;100.00
7966;BME280;4028;43.272;26.932;2023-04-21T02:55:29;98564.56;;;10.62;100.00
7966;BME280;4028;43.272;26.932;2023-04-21T02:57:55;98569.13;;;10.52;100.00
7966;BME280;4028;43.272;26.932;2023-04-21T03:00:20;98570.66;;;10.55;100.00
7966;BME280;4028;43.272;26.932;2023-04-21T03:02:46;98558.66;;;10.43;100.00
7966;BME280;4028;43.272;26.932;2023-04-21T03:05:11;98564.28;;;10.39;100.00
7966;BME280;4028;43.272;26.932;2023-04-21T03:07:37;98565.47;;;10.45;100.00
7966;BME280;4028;43.272;26.932;2023-04-21T03:10:04;98537.84;;;10.22;100.00
7966;BME280;4028;43.272;26.932;2023-04-21T03:12:30;98568.22;;;10.35;100.00
7966;BME280;4028;43.272;26.932;2023-04-21T03:14:56;98575.16;;;10.36;100.00
7966;BME280;4028;43.272;26.932;2023-04-21T03:17:21;98572.88;;;10.41;100.00
7966;BME280;4028;43.272;26.932;2023-04-21T03:19:47;98571.88;;;10.34;100.00
7966;BME280;4028;43.272;26.932;2023-04-21T03:22:12;98578.47;;;10.38;100.00
7966;BME280;4028;43.272;26.932;2023-04-21T03:24:38;98568.75;;;10.39;100.00
7966;BME280;4028;43.272;26.932;2023-04-21T03:27:04;98530.00;;;10.04;100.00
7966;BME280;4028;43.272;26.932;2023-04-21T03:29:30;98560.41;;;10.26;100.00
7966;BME280;4028;43.272;26.932;2023-04-21T03:31:55;98568.84;;;10.29;100.00
7966;BME280;4028;43.272;26.932;2023-04-21T03:34:21;98573.81;;;10.32;100.00
7966;BME280;4028;43.272;26.932;2023-04-21T03:36:46;98570.19;;;10.33;100.00
7966;BME280;4028;43.272;26.932;2023-04-21T03:39:12;98569.22;;;10.34;100.00
7966;BME280;4028;43.272;26.932;2023-04-21T03:41:37;98571.03;;;10.34;100.00
7966;BME280;4028;43.272;26.932;2023-04-21T03:44:03;98535.31;;;10.12;100.00
7966;BME280;4028;43.272;26.932;2023-04-21T03:46:28;98574.41;;;10.44;100.00
7966;BME280;4028;43.272;26.932;2023-04-21T03:48:54;98569.97;;;10.53;100.00
7966;BME280;4028;43.272;26.932;2023-04-21T03:51:19;98569.31;;;10.51;100.00
7966;BME280;4028;43.272;26.932;2023-04-21T03:53:45;98577.88;;;10.45;100.00
7966;BME280;4028;43.272;26.932;2023-04-21T03:56:10;98582.34;;;10.44;100.00
7966;BME280;4028;43.272;26.932;2023-04-21T03:58:36;98584.00;;;10.45;100.00
7966;BME280;4028;43.272;26.932;2023-04-21T04:01:04;98579.09;;;10.32;100.00
7966;BME280;4028;43.272;26.932;2023-04-21T04:03:30;98591.50;;;10.32;100.00
7966;BME280;4028;43.272;26.932;2023-04-21T04:05:55;98593.31;;;10.31;100.00
7966;BME280;4028;43.272;26.932;2023-04-21T04:08:20;98601.09;;;10.33;100.00
7966;BME280;4028;43.272;26.932;2023-04-21T04:10:46;98606.34;;;10.51;100.00
7966;BME280;4028;43.272;26.932;2023-04-21T04:13:11;98612.63;;;10.50;100.00
7966;BME280;4028;43.272;26.932;2023-04-21T04:15:37;98619.88;;;10.48;100.00
7966;BME280;4028;43.272;26.932;2023-04-21T04:18:02;98622.97;;;10.43;100.00
7966;BME280;4028;43.272;26.932;2023-04-21T04:20:28;98626.25;;;10.37;100.00
7966;BME280;4028;43.272;26.932;2023-04-21T04:22:53;98619.13;;;10.37;100.00
7966;BME280;4028;43.272;26.932;2023-04-21T04:25:19;98604.19;;;10.28;100.00
7966;BME280;4028;43.272;26.932;2023-04-21T04:27:45;98631.44;;;10.47;100.00
7966;BME280;4028;43.272;26.932;2023-04-21T04:30:13;98571.22;;;10.14;100.00
7966;BME280;4028;43.272;26.932;2023-04-21T04:32:39;98622.41;;;10.31;100.00
7966;BME280;4028;43.272;26.932;2023-04-21T04:35:06;98620.94;;;10.37;100.00
7966;BME280;4028;43.272;26.932;2023-04-21T04:37:34;98614.31;;;10.33;100.00
7966;BME280;4028;43.272;26.932;2023-04-21T04:39:59;98619.56;;;10.25;100.00
7966;BME280;4028;43.272;26.932;2023-04-21T04:42:25;98617.00;;;10.23;100.00
7966;BME280;4028;43.272;26.932;2023-04-21T04:44:54;98619.09;;;10.29;100.00
7966;BME280;4028;43.272;26.932;2023-04-21T04:47:20;98621.22;;;10.26;100.00
7966;BME280;4028;43.272;26.932;2023-04-21T04:49:45;98623.41;;;10.30;100.00
7966;BME280;4028;43.272;26.932;2023-04-21T04:52:11;98613.38;;;10.42;100.00
7966;BME280;4028;43.272;26.932;2023-04-21T04:54:36;98616.56;;;10.46;100.00
7966;BME280;4028;43.272;26.932;2023-04-21T04:57:02;98625.50;;;10.53;100.00
7966;BME280;4028;43.272;26.932;2023-04-21T04:59:27;98617.13;;;10.57;100.00
7966;BME280;4028;43.272;26.932;2023-04-21T05:01:54;98619.00;;;10.73;100.00
7966;BME280;4028;43.272;26.932;2023-04-21T05:04:20;98607.78;;;10.71;100.00
7966;BME280;4028;43.272;26.932;2023-04-21T05:06:45;98616.34;;;10.65;100.00
7966;BME280;4028;43.272;26.932;2023-04-21T05:09:11;98604.53;;;10.51;100.00
7966;BME280;4028;43.272;26.932;2023-04-21T05:11:37;98615.34;;;10.66;100.00
7966;BME280;4028;43.272;26.932;2023-04-21T05:14:02;98609.34;;;10.56;100.00
7966;BME280;4028;43.272;26.932;2023-04-21T05:16:28;98624.88;;;10.59;100.00
7966;BME280;4028;43.272;26.932;2023-04-21T05:18:53;98625.72;;;10.59;100.00
7966;BME280;4028;43.272;26.932;2023-04-21T05:21:25;98629.28;;;10.76;100.00
7966;BME280;4028;43.272;26.932;2023-04-21T05:23:52;98637.25;;;10.84;100.00
7966;BME280;4028;43.272;26.932;2023-04-21T05:26:18;98635.03;;;10.98;100.00
7966;BME280;4028;43.272;26.932;2023-04-21T05:28:43;98624.97;;;11.09;100.00
7966;BME280;4028;43.272;26.932;2023-04-21T05:31:09;98636.13;;;11.29;100.00
7966;BME280;4028;43.272;26.932;2023-04-21T05:33:34;98637.66;;;11.40;100.00
7966;BME280;4028;43.272;26.932;2023-04-21T05:36:00;98634.16;;;11.39;100.00
7966;BME280;4028;43.272;26.932;2023-04-21T05:38:25;98626.22;;;11.31;100.00
7966;BME280;4028;43.272;26.932;2023-04-21T05:40:54;98625.84;;;11.18;100.00
7966;BME280;4028;43.272;26.932;2023-04-21T05:43:20;98629.44;;;11.09;100.00
7966;BME280;4028;43.272;26.932;2023-04-21T05:45:46;98636.81;;;11.31;100.00
7966;BME280;4028;43.272;26.932;2023-04-21T05:48:12;98629.91;;;11.47;100.00
7966;BME280;4028;43.272;26.932;2023-04-21T05:50:37;98633.72;;;11.60;100.00
7966;BME280;4028;43.272;26.932;2023-04-21T05:53:03;98632.75;;;11.69;100.00
7966;BME280;4028;43.272;26.932;2023-04-21T05:55:28;98623.50;;;11.82;100.00
7966;BME280;4028;43.272;26.932;2023-04-21T05:57:54;98618.38;;;11.96;100.00
7966;BME280;4028;43.272;26.932;2023-04-21T06:00:19;98627.81;;;12.32;100.00
7966;BME280;4028;43.272;26.932;2023-04-21T06:02:45;98624.53;;;12.30;100.00
7966;BME280;4028;43.272;26.932;2023-04-21T06:05:10;98626.97;;;12.47;100.00
7966;BME280;4028;43.272;26.932;2023-04-21T06:07:36;98625.50;;;12.37;100.00
7966;BME280;4028;43.272;26.932;2023-04-21T06:10:02;98633.28;;;12.38;100.00
7966;BME280;4028;43.272;26.932;2023-04-21T06:12:28;98628.97;;;12.37;100.00
7966;BME280;4028;43.272;26.932;2023-04-21T06:14:54;98636.44;;;12.50;100.00
7966;BME280;4028;43.272;26.932;2023-04-21T06:17:24;98640.25;;;12.56;100.00
7966;BME280;4028;43.272;26.932;2023-04-21T06:19:50;98639.69;;;12.77;100.00
7966;BME280;4028;43.272;26.932;2023-04-21T06:22:23;98636.34;;;12.91;100.00
7966;BME280;4028;43.272;26.932;2023-04-21T06:24:49;98605.50;;;12.82;100.00
7966;BME280;4028;43.272;26.932;2023-04-21T06:27:14;98630.47;;;13.04;100.00
7966;BME280;4028;43.272;26.932;2023-04-21T06:29:41;98643.72;;;13.12;100.00
7966;BME280;4028;43.272;26.932;2023-04-21T06:32:10;98648.69;;;13.15;100.00
7966;BME280;4028;43.272;26.932;2023-04-21T06:34:36;98648.22;;;13.11;100.00
7966;BME280;4028;43.272;26.932;2023-04-21T06:37:01;98654.69;;;13.09;100.00
7966;BME280;4028;43.272;26.932;2023-04-21T06:39:27;98656.03;;;13.05;100.00
7966;BME280;4028;43.272;26.932;2023-04-21T06:41:52;98659.72;;;12.95;100.00
7966;BME280;4028;43.272;26.932;2023-04-21T06:44:18;98646.34;;;12.72;100.00
7966;BME280;4028;43.272;26.932;2023-04-21T06:46:44;98641.06;;;12.56;100.00
7966;BME280;4028;43.272;26.932;2023-04-21T06:49:09;98686.97;;;12.73;100.00
7966;BME280;4028;43.272;26.932;2023-04-21T06:51:35;98706.06;;;12.77;100.00
7966;BME280;4028;43.272;26.932;2023-04-21T06:54:01;98718.69;;;12.42;100.00
7966;BME280;4028;43.272;26.932;2023-04-21T06:56:27;98730.31;;;12.25;100.00
7966;BME280;4028;43.272;26.932;2023-04-21T06:58:53;98729.91;;;11.95;100.00
7966;BME280;4028;43.272;26.932;2023-04-21T07:01:18;98729.97;;;11.69;100.00
7966;BME280;4028;43.272;26.932;2023-04-21T07:03:44;98740.84;;;11.50;100.00
7966;BME280;4028;43.272;26.932;2023-04-21T07:06:10;98752.00;;;11.27;100.00
7966;BME280;4028;43.272;26.932;2023-04-21T07:08:36;98744.94;;;11.10;100.00
7966;BME280;4028;43.272;26.932;2023-04-21T07:11:02;98749.78;;;11.14;100.00
7966;BME280;4028;43.272;26.932;2023-04-21T07:13:28;98754.03;;;11.07;100.00
7966;BME280;4028;43.272;26.932;2023-04-21T07:15:53;98749.31;;;11.19;100.00
7966;BME280;4028;43.272;26.932;2023-04-21T07:18:19;98754.59;;;11.19;100.00
7966;BME280;4028;43.272;26.932;2023-04-21T07:20:44;98752.59;;;11.13;100.00
7966;BME280;4028;43.272;26.932;2023-04-21T07:23:10;98745.94;;;11.09;100.00
7966;BME280;4028;43.272;26.932;2023-04-21T07:25:36;98742.28;;;11.10;100.00
7966;BME280;4028;43.272;26.932;2023-04-21T07:28:02;98741.47;;;11.09;100.00
7966;BME280;4028;43.272;26.932;2023-04-21T07:30:28;98748.56;;;11.01;100.00
7966;BME280;4028;43.272;26.932;2023-04-21T07:32:54;98740.16;;;11.13;100.00
7966;BME280;4028;43.272;26.932;2023-04-21T07:35:20;98737.75;;;11.28;100.00
7966;BME280;4028;43.272;26.932;2023-04-21T07:37:45;98737.19;;;11.42;100.00
7966;BME280;4028;43.272;26.932;2023-04-21T07:40:11;98737.19;;;11.51;100.00
7966;BME280;4028;43.272;26.932;2023-04-21T07:42:37;98740.72;;;11.59;100.00
7966;BME280;4028;43.272;26.932;2023-04-21T07:45:03;98743.38;;;11.59;100.00
7966;BME280;4028;43.272;26.932;2023-04-21T07:47:29;98740.25;;;11.64;100.00
7966;BME280;4028;43.272;26.932;2023-04-21T07:49:54;98748.53;;;11.77;100.00
7966;BME280;4028;43.272;26.932;2023-04-21T07:52:20;98744.56;;;11.73;100.00
7966;BME280;4028;43.272;26.932;2023-04-21T07:54:45;98744.41;;;11.75;100.00
7966;BME280;4028;43.272;26.932;2023-04-21T07:57:11;98749.78;;;11.83;100.00
7966;BME280;4028;43.272;26.932;2023-04-21T07:59:36;98743.34;;;12.02;100.00
7966;BME280;4028;43.272;26.932;2023-04-21T08:02:02;98743.72;;;12.15;100.00
7966;BME280;4028;43.272;26.932;2023-04-21T08:04:27;98739.41;;;12.22;100.00
7966;BME280;4028;43.272;26.932;2023-04-21T08:06:53;98738.25;;;12.41;100.00
7966;BME280;4028;43.272;26.932;2023-04-21T08:09:18;98737.41;;;12.81;100.00
7966;BME280;4028;43.272;26.932;2023-04-21T08:11:44;98732.41;;;13.02;100.00
7966;BME280;4028;43.272;26.932;2023-04-21T08:14:09;98725.88;;;13.30;100.00
7966;BME280;4028;43.272;26.932;2023-04-21T08:16:36;98719.34;;;13.48;100.00
7966;BME280;4028;43.272;26.932;2023-04-21T08:19:03;98717.09;;;13.68;100.00
7966;BME280;4028;43.272;26.932;2023-04-21T08:21:28;98720.88;;;13.74;100.00
7966;BME280;4028;43.272;26.932;2023-04-21T08:23:55;98724.66;;;13.48;100.00
7966;BME280;4028;43.272;26.932;2023-04-21T08:26:22;98719.66;;;13.53;100.00
7966;BME280;4028;43.272;26.932;2023-04-21T08:28:48;98725.56;;;13.72;100.00
7966;BME280;4028;43.272;26.932;2023-04-21T08:31:15;98726.78;;;13.53;100.00
7966;BME280;4028;43.272;26.932;2023-04-21T08:33:41;98724.72;;;14.02;100.00
7966;BME280;4028;43.272;26.932;2023-04-21T08:36:06;98729.59;;;14.37;100.00
7966;BME280;4028;43.272;26.932;2023-04-21T08:38:32;98723.34;;;14.52;99.71
7966;BME280;4028;43.272;26.932;2023-04-21T08:40:58;98729.78;;;14.35;100.00
7966;BME280;4028;43.272;26.932;2023-04-21T08:43:24;98728.16;;;14.34;98.65
7966;BME280;4028;43.272;26.932;2023-04-21T08:45:51;98719.16;;;14.58;100.00
7966;BME280;4028;43.272;26.932;2023-04-21T08:48:20;98726.59;;;14.63;100.00
7966;BME280;4028;43.272;26.932;2023-04-21T08:50:48;98729.69;;;14.51;100.00
7966;BME280;4028;43.272;26.932;2023-04-21T08:53:15;98726.75;;;14.38;99.55
7966;BME280;4028;43.272;26.932;2023-04-21T08:55:41;98732.94;;;14.16;100.00
7966;BME280;4028;43.272;26.932;2023-04-21T08:58:07;98731.00;;;14.01;100.00
7966;BME280;4028;43.272;26.932;2023-04-21T09:00:36;98742.25;;;13.89;100.00
7966;BME280;4028;43.272;26.932;2023-04-21T09:03:02;98740.53;;;13.65;100.00
7966;BME280;4028;43.272;26.932;2023-04-21T09:05:31;98736.97;;;13.41;100.00
7966;BME280;4028;43.272;26.932;2023-04-21T09:08:14;98726.88;;;13.37;100.00
7966;BME280;4028;43.272;26.932;2023-04-21T09:10:48;98725.03;;;13.37;100.00
7966;BME280;4028;43.272;26.932;2023-04-21T09:13:15;98709.09;;;13.37;100.00
7966;BME280;4028;43.272;26.932;2023-04-21T09:15:47;98743.59;;;13.85;100.00
7966;BME280;4028;43.272;26.932;2023-04-21T09:18:13;98745.03;;;13.95;100.00
7966;BME280;4028;43.272;26.932;2023-04-21T09:20:40;98740.38;;;14.20;100.00
7966;BME280;4028;43.272;26.932;2023-04-21T09:23:06;98736.59;;;14.38;100.00
7966;BME280;4028;43.272;26.932;2023-04-21T09:25:33;98732.66;;;14.56;100.00
7966;BME280;4028;43.272;26.932;2023-04-21T09:27:59;98731.56;;;14.66;100.00
7966;BME280;4028;43.272;26.932;2023-04-21T09:30:25;98728.31;;;14.93;100.00
7966;BME280;4028;43.272;26.932;2023-04-21T09:32:55;98728.50;;;15.80;84.61
7966;BME280;4028;43.272;26.932;2023-04-21T09:35:23;98713.09;;;16.61;70.33
7966;BME280;4028;43.272;26.932;2023-04-21T09:37:51;98709.53;;;17.80;62.21
7966;BME280;4028;43.272;26.932;2023-04-21T09:40:17;98711.00;;;17.96;60.61
7966;BME280;4028;43.272;26.932;2023-04-21T09:42:43;98712.19;;;17.38;59.48
7966;BME280;4028;43.272;26.932;2023-04-21T09:45:09;98714.56;;;17.20;62.99
7966;BME280;4028;43.272;26.932;2023-04-21T09:47:39;98718.78;;;17.36;64.17
7966;BME280;4028;43.272;26.932;2023-04-21T09:50:10;98713.84;;;17.81;61.43
7966;BME280;4028;43.272;26.932;2023-04-21T09:52:38;98711.75;;;18.70;61.47
7966;BME280;4028;43.272;26.932;2023-04-21T09:55:10;98713.56;;;19.16;56.88
7966;BME280;4028;43.272;26.932;2023-04-21T09:57:38;98708.03;;;18.98;55.67
7966;BME280;4028;43.272;26.932;2023-04-21T10:00:06;98705.34;;;18.65;56.20
7966;BME280;4028;43.272;26.932;2023-04-21T10:03:03;98706.84;;;17.80;54.72
7966;BME280;4028;43.272;26.932;2023-04-21T10:05:29;98694.88;;;17.28;57.19
7966;BME280;4028;43.272;26.932;2023-04-21T10:07:55;98703.25;;;17.18;58.95
7966;BME280;4028;43.272;26.932;2023-04-21T10:10:26;98709.94;;;17.01;63.19
7966;BME280;4028;43.272;26.932;2023-04-21T10:12:52;98690.63;;;16.77;61.11
7966;BME280;4028;43.272;26.932;2023-04-21T10:15:34;98705.25;;;16.81;63.67
7966;BME280;4028;43.272;26.932;2023-04-21T10:21:04;98672.72;;;16.50;66.36
7966;BME280;4028;43.272;26.932;2023-04-21T10:28:51;98701.41;;;16.84;58.99
7966;BME280;4028;43.272;26.932;2023-04-21T10:39:26;98706.81;;;16.97;55.05
7966;BME280;4028;43.272;26.932;2023-04-21T10:41:55;98711.47;;;17.17;53.77
7966;BME280;4028;43.272;26.932;2023-04-21T10:44:22;98715.84;;;16.96;53.59
7966;BME280;4028;43.272;26.932;2023-04-21T10:46:52;98718.44;;;16.40;54.30
7966;BME280;4028;43.272;26.932;2023-04-21T10:49:22;98721.69;;;15.93;55.53
7966;BME280;4028;43.272;26.932;2023-04-21T10:54:36;98725.94;;;15.72;59.56
7966;BME280;4028;43.272;26.932;2023-04-21T10:57:07;98722.81;;;15.69;59.60
7966;BME280;4028;43.272;26.932;2023-04-21T10:59:34;98723.84;;;15.68;60.86
7966;BME280;4028;43.272;26.932;2023-04-21T11:02:01;98657.66;;;15.42;61.20
7966;BME280;4028;43.272;26.932;2023-04-21T11:04:27;98726.78;;;15.73;59.52
7966;BME280;4028;43.272;26.932;2023-04-21T11:09:35;98730.56;;;16.00;60.61
7966;BME280;4028;43.272;26.932;2023-04-21T11:12:03;98725.56;;;16.11;60.54
7966;BME280;4028;43.272;26.932;2023-04-21T11:14:32;98722.25;;;16.31;61.54
7966;BME280;4028;43.272;26.932;2023-04-21T11:17:00;98713.88;;;16.13;59.17
7966;BME280;4028;43.272;26.932;2023-04-21T11:19:26;98728.94;;;16.20;57.99
7966;BME280;4028;43.272;26.932;2023-04-21T11:21:53;98722.41;;;16.23;58.33
7966;BME280;4028;43.272;26.932;2023-04-21T11:24:21;98720.16;;;16.26;57.20
7966;BME280;4028;43.272;26.932;2023-04-21T11:26:47;98721.81;;;16.27;56.84
7966;BME280;4028;43.272;26.932;2023-04-21T11:29:13;98726.28;;;16.20;56.62
7966;BME280;4028;43.272;26.932;2023-04-21T11:31:41;98730.72;;;16.13;56.90
7966;BME280;4028;43.272;26.932;2023-04-21T11:34:07;98731.41;;;16.00;57.13
7966;BME280;4028;43.272;26.932;2023-04-21T11:36:33;98744.75;;;15.85;58.29
7966;BME280;4028;43.272;26.932;2023-04-21T11:39:03;98727.22;;;15.76;60.22
7966;BME280;4028;43.272;26.932;2023-04-21T11:41:32;98741.56;;;15.60;59.93
7966;BME280;4028;43.272;26.932;2023-04-21T11:43:58;98736.59;;;15.57;59.71
7966;BME280;4028;43.272;26.932;2023-04-21T11:46:24;98750.72;;;15.66;59.80
7966;BME280;4028;43.272;26.932;2023-04-21T11:49:06;98741.00;;;15.50;59.93
7966;BME280;4028;43.272;26.932;2023-04-21T11:51:36;98755.00;;;15.52;61.68
7966;BME280;4028;43.272;26.932;2023-04-21T11:54:04;98742.75;;;15.58;60.81
7966;BME280;4028;43.272;26.932;2023-04-21T11:56:33;98737.81;;;15.70;60.55
7966;BME280;4028;43.272;26.932;2023-04-21T11:58:59;98741.53;;;15.90;59.40
7966;BME280;4028;43.272;26.932;2023-04-21T12:01:25;98716.72;;;15.75;57.54
7966;BME280;4028;43.272;26.932;2023-04-21T12:03:53;98738.63;;;16.06;55.65
7966;BME280;4028;43.272;26.932;2023-04-21T12:06:25;98736.53;;;16.02;55.91
7966;BME280;4028;43.272;26.932;2023-04-21T12:09:02;98739.25;;;16.23;56.72
7966;BME280;4028;43.272;26.932;2023-04-21T12:11:28;98734.09;;;16.43;56.98
7966;BME280;4028;43.272;26.932;2023-04-21T12:13:58;98727.47;;;16.60;55.55
7966;BME280;4028;43.272;26.932;2023-04-21T12:16:27;98730.25;;;16.52;54.53
7966;BME280;4028;43.272;26.932;2023-04-21T12:18:56;98731.81;;;16.40;52.71
7966;BME280;4028;43.272;26.932;2023-04-21T12:21:28;98734.97;;;16.50;53.02
7966;BME280;4028;43.272;26.932;2023-04-21T12:23:55;98713.09;;;16.61;52.72
7966;BME280;4028;43.272;26.932;2023-04-21T12:26:21;98722.63;;;16.71;51.73
7966;BME280;4028;43.272;26.932;2023-04-21T12:28:49;98722.81;;;16.69;52.33
7966;BME280;4028;43.272;26.932;2023-04-21T12:31:14;98701.38;;;16.62;51.65
7966;BME280;4028;43.272;26.932;2023-04-21T12:33:40;98680.03;;;16.41;51.15
7966;BME280;4028;43.272;26.932;2023-04-21T12:36:06;98712.97;;;16.70;51.25
7966;BME280;4028;43.272;26.932;2023-04-21T12:38:31;98713.63;;;16.72;50.46
7966;BME280;4028;43.272;26.932;2023-04-21T12:40:57;98722.63;;;16.71;50.72
7966;BME280;4028;43.272;26.932;2023-04-21T12:43:22;98711.91;;;16.64;49.21
7966;BME280;4028;43.272;26.932;2023-04-21T12:45:48;98714.56;;;16.64;50.39
7966;BME280;4028;43.272;26.932;2023-04-21T12:48:14;98726.50;;;16.47;49.46
7966;BME280;4028;43.272;26.932;2023-04-21T12:50:39;98720.88;;;16.35;50.37
7966;BME280;4028;43.272;26.932;2023-04-21T12:53:05;98719.22;;;16.55;51.78
7966;BME280;4028;43.272;26.932;2023-04-21T12:55:33;98717.97;;;16.58;50.16
7966;BME280;4028;43.272;26.932;2023-04-21T12:57:59;98714.94;;;16.61;50.21
7966;BME280;4028;43.272;26.932;2023-04-21T13:00:24;98706.97;;;16.68;49.08
7966;BME280;4028;43.272;26.932;2023-04-21T13:02:50;98717.28;;;16.71;49.13
7966;BME280;4028;43.272;26.932;2023-04-21T13:05:15;98716.47;;;16.70;49.00
7966;BME280;4028;43.272;26.932;2023-04-21T13:07:41;98708.56;;;16.62;49.38
7966;BME280;4028;43.272;26.932;2023-04-21T13:10:07;98708.31;;;16.78;49.04
7966;BME280;4028;43.272;26.932;2023-04-21T13:12:32;98701.78;;;16.81;48.73
7966;BME280;4028;43.272;26.932;2023-04-21T13:14:58;98706.31;;;16.87;49.66
7966;BME280;4028;43.272;26.932;2023-04-21T13:17:23;98705.94;;;16.90;49.41
7966;BME280;4028;43.272;26.932;2023-04-21T13:19:49;98699.47;;;17.06;48.82
7966;BME280;4028;43.272;26.932;2023-04-21T13:22:14;98708.09;;;17.08;49.78